sensor_id;sensor_type;location;lat;lon;timestamp;temperature;humidity
8420;DHT22;4247;48.550;8.822;2023-01-25T00:00:12;1.90;99.90
8420;DHT22;4247;48.550;8.822;2023-01-25T00:02:40;1.80;99.90
8420;DHT22;4247;48.550;8.822;2023-01-25T00:05:07;1.90;99.90
8420;DHT22;4247;48.550;8.822;2023-01-25T00:07:34;1.80;99.90
8420;DHT22;4247;48.550;8.822;2023-01-25T00:10:02;1.90;99.90
8420;DHT22;4247;48.550;8.822;2023-01-25T00:12:31;1.80;99.90
8420;DHT22;4247;48.550;8.822;2023-01-25T00:14:58;1.90;99.90
8420;DHT22;4247;48.550;8.822;2023-01-25T00:17:27;1.90;99.90
8420;DHT22;4247;48.550;8.822;2023-01-25T00:19:54;1.90;99.90
8420;DHT22;4247;48.550;8.822;2023-01-25T00:22:21;1.80;99.90
8420;DHT22;4247;48.550;8.822;2023-01-25T00:24:48;1.80;99.90
8420;DHT22;4247;48.550;8.822;2023-01-25T00:27:14;1.90;99.90
8420;DHT22;4247;48.550;8.822;2023-01-25T00:29:44;1.90;99.90
8420;DHT22;4247;48.550;8.822;2023-01-25T00:32:46;1.90;99.90
8420;DHT22;4247;48.550;8.822;2023-01-25T00:35:14;1.90;99.90
8420;DHT22;4247;48.550;8.822;2023-01-25T00:37:43;1.90;99.90
8420;DHT22;4247;48.550;8.822;2023-01-25T00:40:16;1.90;99.90
8420;DHT22;4247;48.550;8.822;2023-01-25T00:42:43;1.90;99.90
8420;DHT22;4247;48.550;8.822;2023-01-25T00:45:11;1.90;99.90
8420;DHT22;4247;48.550;8.822;2023-01-25T00:47:38;1.80;99.90
8420;DHT22;4247;48.550;8.822;2023-01-25T00:50:10;1.90;99.90
8420;DHT22;4247;48.550;8.822;2023-01-25T00:52:38;1.80;99.90
8420;DHT22;4247;48.550;8.822;2023-01-25T00:55:08;1.90;99.90
8420;DHT22;4247;48.550;8.822;2023-01-25T00:57:35;1.90;99.90
8420;DHT22;4247;48.550;8.822;2023-01-25T01:00:03;1.90;99.90
8420;DHT22;4247;48.550;8.822;2023-01-25T01:02:31;1.90;99.90
8420;DHT22;4247;48.550;8.822;2023-01-25T01:04:58;1.90;99.90
8420;DHT22;4247;48.550;8.822;2023-01-25T01:07:27;1.90;99.90
8420;DHT22;4247;48.550;8.822;2023-01-25T01:09:54;1.90;99.90
8420;DHT22;4247;48.550;8.822;2023-01-25T01:12:21;1.80;99.90
8420;DHT22;4247;48.550;8.822;2023-01-25T01:14:48;1.90;99.90
8420;DHT22;4247;48.550;8.822;2023-01-25T01:17:17;1.80;99.90
8420;DHT22;4247;48.550;8.822;2023-01-25T01:19:44;1.80;99.90
8420;DHT22;4247;48.550;8.822;2023-01-25T01:22:11;1.80;99.90
8420;DHT22;4247;48.550;8.822;2023-01-25T01:24:40;1.90;99.90
8420;DHT22;4247;48.550;8.822;2023-01-25T01:27:07;1.90;99.90
8420;DHT22;4247;48.550;8.822;2023-01-25T01:29:34;1.90;99.90
8420;DHT22;4247;48.550;8.822;2023-01-25T01:32:01;1.90;99.90
8420;DHT22;4247;48.550;8.822;2023-01-25T01:34:29;1.90;99.90
8420;DHT22;4247;48.550;8.822;2023-01-25T01:36:56;1.90;99.90
8420;DHT22;4247;48.550;8.822;2023-01-25T01:39:23;1.90;99.90
8420;DHT22;4247;48.550;8.822;2023-01-25T01:41:51;1.90;99.90
8420;DHT22;4247;48.550;8.822;2023-01-25T01:44:20;1.90;99.90
8420;DHT22;4247;48.550;8.822;2023-01-25T01:46:52;1.90;99.90
8420;DHT22;4247;48.550;8.822;2023-01-25T01:49:26;1.90;99.90
8420;DHT22;4247;48.550;8.822;2023-01-25T01:51:59;1.90;99.90
8420;DHT22;4247;48.550;8.822;2023-01-25T01:54:33;1.90;99.90
8420;DHT22;4247;48.550;8.822;2023-01-25T01:57:08;1.90;99.90
8420;DHT22;4247;48.550;8.822;2023-01-25T01:59:40;1.90;99.90
8420;DHT22;4247;48.550;8.822;2023-01-25T02:02:08;1.90;99.90
8420;DHT22;4247;48.550;8.822;2023-01-25T02:04:35;1.90;99.90
8420;DHT22;4247;48.550;8.822;2023-01-25T02:07:06;1.90;99.90
8420;DHT22;4247;48.550;8.822;2023-01-25T02:09:36;1.90;99.90
8420;DHT22;4247;48.550;8.822;2023-01-25T02:12:06;1.90;99.90
8420;DHT22;4247;48.550;8.822;2023-01-25T02:14:36;1.90;99.90
8420;DHT22;4247;48.550;8.822;2023-01-25T02:17:05;1.90;99.90
8420;DHT22;4247;48.550;8.822;2023-01-25T02:19:42;1.90;99.90
8420;DHT22;4247;48.550;8.822;2023-01-25T02:22:13;1.90;99.90
8420;DHT22;4247;48.550;8.822;2023-01-25T02:24:48;1.90;99.90
8420;DHT22;4247;48.550;8.822;2023-01-25T02:27:18;1.90;99.90
8420;DHT22;4247;48.550;8.822;2023-01-25T02:29:46;1.90;99.90
8420;DHT22;4247;48.550;8.822;2023-01-25T02:32:15;2.00;99.90
8420;DHT22;4247;48.550;8.822;2023-01-25T02:34:42;1.90;99.90
8420;DHT22;4247;48.550;8.822;2023-01-25T02:37:12;1.90;99.90
8420;DHT22;4247;48.550;8.822;2023-01-25T02:39:41;1.90;99.90
8420;DHT22;4247;48.550;8.822;2023-01-25T02:42:11;1.90;99.90
8420;DHT22;4247;48.550;8.822;2023-01-25T02:44:43;1.90;99.90
8420;DHT22;4247;48.550;8.822;2023-01-25T02:47:10;2.00;99.90
8420;DHT22;4247;48.550;8.822;2023-01-25T02:49:37;2.00;99.90
8420;DHT22;4247;48.550;8.822;2023-01-25T02:52:05;2.00;99.90
8420;DHT22;4247;48.550;8.822;2023-01-25T02:54:32;2.00;99.90
8420;DHT22;4247;48.550;8.822;2023-01-25T02:56:59;2.00;99.90
8420;DHT22;4247;48.550;8.822;2023-01-25T02:59:26;2.00;99.90
8420;DHT22;4247;48.550;8.822;2023-01-25T03:01:55;2.00;99.90
8420;DHT22;4247;48.550;8.822;2023-01-25T03:04:22;2.00;99.90
8420;DHT22;4247;48.550;8.822;2023-01-25T03:06:49;2.00;99.90
8420;DHT22;4247;48.550;8.822;2023-01-25T03:09:16;2.00;99.90
8420;DHT22;4247;48.550;8.822;2023-01-25T03:11:43;2.00;99.90
8420;DHT22;4247;48.550;8.822;2023-01-25T03:14:10;2.00;99.90
8420;DHT22;4247;48.550;8.822;2023-01-25T03:16:37;2.00;99.90
8420;DHT22;4247;48.550;8.822;2023-01-25T03:19:05;2.00;99.90
8420;DHT22;4247;48.550;8.822;2023-01-25T03:21:32;2.00;99.90
8420;DHT22;4247;48.550;8.822;2023-01-25T03:24:00;2.00;99.90
8420;DHT22;4247;48.550;8.822;2023-01-25T03:26:30;2.00;99.90
8420;DHT22;4247;48.550;8.822;2023-01-25T03:29:17;2.00;99.90
8420;DHT22;4247;48.550;8.822;2023-01-25T03:31:44;2.00;99.90
8420;DHT22;4247;48.550;8.822;2023-01-25T03:34:13;2.00;99.90
8420;DHT22;4247;48.550;8.822;2023-01-25T03:36:40;2.00;99.90
8420;DHT22;4247;48.550;8.822;2023-01-25T03:39:09;2.00;99.90
8420;DHT22;4247;48.550;8.822;2023-01-25T03:41:36;2.00;99.90
8420;DHT22;4247;48.550;8.822;2023-01-25T03:44:03;2.00;99.90
8420;DHT22;4247;48.550;8.822;2023-01-25T03:46:31;2.00;99.90
8420;DHT22;4247;48.550;8.822;2023-01-25T03:48:58;2.00;99.90
8420;DHT22;4247;48.550;8.822;2023-01-25T03:51:26;2.00;99.90
8420;DHT22;4247;48.550;8.822;2023-01-25T03:53:53;2.00;99.90
8420;DHT22;4247;48.550;8.822;2023-01-25T03:56:20;1.90;99.90
8420;DHT22;4247;48.550;8.822;2023-01-25T03:58:48;2.00;99.90
8420;DHT22;4247;48.550;8.822;2023-01-25T04:01:15;2.00;99.90
8420;DHT22;4247;48.550;8.822;2023-01-25T04:03:42;1.90;99.90
8420;DHT22;4247;48.550;8.822;2023-01-25T04:06:09;2.00;99.90
8420;DHT22;4247;48.550;8.822;2023-01-25T04:08:37;2.00;99.90
8420;DHT22;4247;48.550;8.822;2023-01-25T04:11:08;2.00;99.90
8420;DHT22;4247;48.550;8.822;2023-01-25T04:13:36;2.00;99.90
8420;DHT22;4247;48.550;8.822;2023-01-25T04:16:04;2.00;99.90
8420;DHT22;4247;48.550;8.822;2023-01-25T04:18:31;2.00;99.90
8420;DHT22;4247;48.550;8.822;2023-01-25T04:20:59;2.00;99.90
8420;DHT22;4247;48.550;8.822;2023-01-25T04:23:27;2.00;99.90
8420;DHT22;4247;48.550;8.822;2023-01-25T04:25:58;2.00;99.90
8420;DHT22;4247;48.550;8.822;2023-01-25T04:28:26;2.00;99.90
8420;DHT22;4247;48.550;8.822;2023-01-25T04:30:54;2.10;99.90
8420;DHT22;4247;48.550;8.822;2023-01-25T04:33:25;2.10;99.90
8420;DHT22;4247;48.550;8.822;2023-01-25T04:35:53;2.00;99.90
8420;DHT22;4247;48.550;8.822;2023-01-25T04:38:23;2.00;99.90
8420;DHT22;4247;48.550;8.822;2023-01-25T04:40:50;2.10;99.90
8420;DHT22;4247;48.550;8.822;2023-01-25T04:43:20;2.10;99.90
8420;DHT22;4247;48.550;8.822;2023-01-25T04:45:47;2.10;99.90
8420;DHT22;4247;48.550;8.822;2023-01-25T04:48:15;2.10;99.90
8420;DHT22;4247;48.550;8.822;2023-01-25T04:50:44;2.10;99.90
8420;DHT22;4247;48.550;8.822;2023-01-25T04:53:12;2.10;99.90
8420;DHT22;4247;48.550;8.822;2023-01-25T04:55:39;2.10;99.90
8420;DHT22;4247;48.550;8.822;2023-01-25T04:58:06;2.10;99.90
8420;DHT22;4247;48.550;8.822;2023-01-25T05:00:40;2.10;99.90
8420;DHT22;4247;48.550;8.822;2023-01-25T05:03:07;2.10;99.90
8420;DHT22;4247;48.550;8.822;2023-01-25T05:05:37;2.10;99.90
8420;DHT22;4247;48.550;8.822;2023-01-25T05:08:04;2.10;99.90
8420;DHT22;4247;48.550;8.822;2023-01-25T05:10:31;2.20;99.90
8420;DHT22;4247;48.550;8.822;2023-01-25T05:13:01;2.20;99.90
8420;DHT22;4247;48.550;8.822;2023-01-25T05:15:35;2.20;99.90
8420;DHT22;4247;48.550;8.822;2023-01-25T05:18:04;2.20;99.90
8420;DHT22;4247;48.550;8.822;2023-01-25T05:20:44;2.20;99.90
8420;DHT22;4247;48.550;8.822;2023-01-25T05:23:15;2.10;99.90
8420;DHT22;4247;48.550;8.822;2023-01-25T05:25:43;2.10;99.90
8420;DHT22;4247;48.550;8.822;2023-01-25T05:28:28;2.10;99.90
8420;DHT22;4247;48.550;8.822;2023-01-25T05:30:55;2.10;99.90
8420;DHT22;4247;48.550;8.822;2023-01-25T05:33:24;2.20;99.90
8420;DHT22;4247;48.550;8.822;2023-01-25T05:35:56;2.20;99.90
8420;DHT22;4247;48.550;8.822;2023-01-25T05:38:26;2.20;99.90
8420;DHT22;4247;48.550;8.822;2023-01-25T05:40:57;2.20;99.90
8420;DHT22;4247;48.550;8.822;2023-01-25T05:43:24;2.20;99.90
8420;DHT22;4247;48.550;8.822;2023-01-25T05:45:59;2.20;99.90
8420;DHT22;4247;48.550;8.822;2023-01-25T05:48:31;2.20;99.90
8420;DHT22;4247;48.550;8.822;2023-01-25T05:50:58;2.20;99.90
8420;DHT22;4247;48.550;8.822;2023-01-25T05:53:27;2.20;99.90
8420;DHT22;4247;48.550;8.822;2023-01-25T05:55:54;2.20;99.90
8420;DHT22;4247;48.550;8.822;2023-01-25T05:58:21;2.10;99.90
8420;DHT22;4247;48.550;8.822;2023-01-25T06:00:49;2.20;99.90
8420;DHT22;4247;48.550;8.822;2023-01-25T06:03:16;2.20;99.90
8420;DHT22;4247;48.550;8.822;2023-01-25T06:05:45;2.20;99.90
8420;DHT22;4247;48.550;8.822;2023-01-25T06:08:15;2.20;99.90
8420;DHT22;4247;48.550;8.822;2023-01-25T06:10:43;2.20;99.90
8420;DHT22;4247;48.550;8.822;2023-01-25T06:13:09;2.20;99.90
8420;DHT22;4247;48.550;8.822;2023-01-25T06:15:37;2.20;99.90
8420;DHT22;4247;48.550;8.822;2023-01-25T06:18:04;2.20;99.90
8420;DHT22;4247;48.550;8.822;2023-01-25T06:20:31;2.20;99.90
8420;DHT22;4247;48.550;8.822;2023-01-25T06:22:59;2.20;99.90
8420;DHT22;4247;48.550;8.822;2023-01-25T06:25:26;2.10;99.90
8420;DHT22;4247;48.550;8.822;2023-01-25T06:27:54;2.20;99.90
8420;DHT22;4247;48.550;8.822;2023-01-25T06:30:21;2.10;99.90
8420;DHT22;4247;48.550;8.822;2023-01-25T06:32:48;2.20;99.90
8420;DHT22;4247;48.550;8.822;2023-01-25T06:35:15;2.20;99.90
8420;DHT22;4247;48.550;8.822;2023-01-25T06:37:42;2.10;99.90
8420;DHT22;4247;48.550;8.822;2023-01-25T06:40:11;2.10;99.90
8420;DHT22;4247;48.550;8.822;2023-01-25T06:42:38;2.10;99.90
8420;DHT22;4247;48.550;8.822;2023-01-25T06:45:07;2.10;99.90
8420;DHT22;4247;48.550;8.822;2023-01-25T06:47:34;2.10;99.90
8420;DHT22;4247;48.550;8.822;2023-01-25T06:50:01;2.10;99.90
8420;DHT22;4247;48.550;8.822;2023-01-25T06:52:28;2.10;99.90
8420;DHT22;4247;48.550;8.822;2023-01-25T06:54:56;2.10;99.90
8420;DHT22;4247;48.550;8.822;2023-01-25T06:57:24;2.10;99.90
8420;DHT22;4247;48.550;8.822;2023-01-25T06:59:57;2.20;99.90
8420;DHT22;4247;48.550;8.822;2023-01-25T07:02:25;2.20;99.90
8420;DHT22;4247;48.550;8.822;2023-01-25T07:04:54;2.20;99.90
8420;DHT22;4247;48.550;8.822;2023-01-25T07:07:21;2.20;99.90
8420;DHT22;4247;48.550;8.822;2023-01-25T07:09:48;2.20;99.90
8420;DHT22;4247;48.550;8.822;2023-01-25T07:12:18;2.20;99.90
8420;DHT22;4247;48.550;8.822;2023-01-25T07:14:50;2.20;99.90
8420;DHT22;4247;48.550;8.822;2023-01-25T07:17:17;2.20;99.90
8420;DHT22;4247;48.550;8.822;2023-01-25T07:19:45;2.30;99.90
8420;DHT22;4247;48.550;8.822;2023-01-25T07:22:12;2.30;99.90
8420;DHT22;4247;48.550;8.822;2023-01-25T07:24:40;2.30;99.90
8420;DHT22;4247;48.550;8.822;2023-01-25T07:27:10;2.30;99.90
8420;DHT22;4247;48.550;8.822;2023-01-25T07:29:37;2.30;99.90
8420;DHT22;4247;48.550;8.822;2023-01-25T07:32:07;2.30;99.90
8420;DHT22;4247;48.550;8.822;2023-01-25T07:34:35;2.30;99.90
8420;DHT22;4247;48.550;8.822;2023-01-25T07:37:03;2.30;99.90
8420;DHT22;4247;48.550;8.822;2023-01-25T07:39:31;2.30;99.90
8420;DHT22;4247;48.550;8.822;2023-01-25T07:42:00;2.40;99.90
8420;DHT22;4247;48.550;8.822;2023-01-25T07:44:27;2.30;99.90
8420;DHT22;4247;48.550;8.822;2023-01-25T07:46:54;2.30;99.90
8420;DHT22;4247;48.550;8.822;2023-01-25T07:49:22;2.30;99.90
8420;DHT22;4247;48.550;8.822;2023-01-25T07:51:50;2.30;99.90
8420;DHT22;4247;48.550;8.822;2023-01-25T07:54:19;2.30;99.90
8420;DHT22;4247;48.550;8.822;2023-01-25T07:56:46;2.20;99.90
8420;DHT22;4247;48.550;8.822;2023-01-25T07:59:14;2.20;99.90
8420;DHT22;4247;48.550;8.822;2023-01-25T08:01:41;2.30;99.90
8420;DHT22;4247;48.550;8.822;2023-01-25T08:04:09;2.20;99.90
8420;DHT22;4247;48.550;8.822;2023-01-25T08:06:38;2.20;99.90
8420;DHT22;4247;48.550;8.822;2023-01-25T08:09:07;2.20;99.90
8420;DHT22;4247;48.550;8.822;2023-01-25T08:11:34;2.30;99.90
8420;DHT22;4247;48.550;8.822;2023-01-25T08:14:04;2.30;99.90
8420;DHT22;4247;48.550;8.822;2023-01-25T08:16:32;2.30;99.90
8420;DHT22;4247;48.550;8.822;2023-01-25T08:19:02;2.30;99.90
8420;DHT22;4247;48.550;8.822;2023-01-25T08:21:32;2.30;99.90
8420;DHT22;4247;48.550;8.822;2023-01-25T08:24:03;2.30;99.90
8420;DHT22;4247;48.550;8.822;2023-01-25T08:26:31;2.30;99.90
8420;DHT22;4247;48.550;8.822;2023-01-25T08:28:58;2.30;99.90
8420;DHT22;4247;48.550;8.822;2023-01-25T08:31:26;2.30;99.90
8420;DHT22;4247;48.550;8.822;2023-01-25T08:33:56;2.20;99.90
8420;DHT22;4247;48.550;8.822;2023-01-25T08:36:24;2.30;99.90
8420;DHT22;4247;48.550;8.822;2023-01-25T08:38:54;2.30;99.90
8420;DHT22;4247;48.550;8.822;2023-01-25T08:41:23;2.30;99.90
8420;DHT22;4247;48.550;8.822;2023-01-25T08:43:52;2.30;99.90
8420;DHT22;4247;48.550;8.822;2023-01-25T08:46:21;2.40;99.90
8420;DHT22;4247;48.550;8.822;2023-01-25T08:48:52;2.40;99.90
8420;DHT22;4247;48.550;8.822;2023-01-25T08:51:20;2.40;99.90
8420;DHT22;4247;48.550;8.822;2023-01-25T08:57:17;2.40;99.90
8420;DHT22;4247;48.550;8.822;2023-01-25T08:59:44;2.40;99.90
8420;DHT22;4247;48.550;8.822;2023-01-25T09:02:12;2.40;99.90
8420;DHT22;4247;48.550;8.822;2023-01-25T09:04:39;2.40;99.90
8420;DHT22;4247;48.550;8.822;2023-01-25T09:07:06;2.40;99.90
8420;DHT22;4247;48.550;8.822;2023-01-25T09:09:33;2.50;99.90
8420;DHT22;4247;48.550;8.822;2023-01-25T09:12:01;2.40;99.90
8420;DHT22;4247;48.550;8.822;2023-01-25T09:14:29;2.40;99.90
8420;DHT22;4247;48.550;8.822;2023-01-25T09:16:59;2.40;99.90
8420;DHT22;4247;48.550;8.822;2023-01-25T09:19:26;2.40;99.90
8420;DHT22;4247;48.550;8.822;2023-01-25T09:21:53;2.40;99.90
8420;DHT22;4247;48.550;8.822;2023-01-25T09:24:20;2.40;99.90
8420;DHT22;4247;48.550;8.822;2023-01-25T09:26:47;2.50;99.90
8420;DHT22;4247;48.550;8.822;2023-01-25T09:29:15;2.50;99.90
8420;DHT22;4247;48.550;8.822;2023-01-25T09:31:44;2.40;99.90
8420;DHT22;4247;48.550;8.822;2023-01-25T09:34:13;2.50;99.90
8420;DHT22;4247;48.550;8.822;2023-01-25T09:36:43;2.40;99.90
8420;DHT22;4247;48.550;8.822;2023-01-25T09:39:10;2.40;99.90
8420;DHT22;4247;48.550;8.822;2023-01-25T09:42:06;2.40;99.90
8420;DHT22;4247;48.550;8.822;2023-01-25T09:44:47;2.40;99.90
8420;DHT22;4247;48.550;8.822;2023-01-25T09:47:26;2.40;99.90
8420;DHT22;4247;48.550;8.822;2023-01-25T09:50:23;2.30;99.90
8420;DHT22;4247;48.550;8.822;2023-01-25T09:53:09;2.30;99.90
8420;DHT22;4247;48.550;8.822;2023-01-25T09:55:39;2.20;99.90
8420;DHT22;4247;48.550;8.822;2023-01-25T09:58:13;2.20;99.90
8420;DHT22;4247;48.550;8.822;2023-01-25T10:00:43;2.20;99.90
8420;DHT22;4247;48.550;8.822;2023-01-25T10:03:19;2.20;99.90
8420;DHT22;4247;48.550;8.822;2023-01-25T10:05:50;2.20;99.90
8420;DHT22;4247;48.550;8.822;2023-01-25T10:08:23;2.10;99.90
8420;DHT22;4247;48.550;8.822;2023-01-25T10:10:58;2.10;99.90
8420;DHT22;4247;48.550;8.822;2023-01-25T10:13:27;2.10;99.90
8420;DHT22;4247;48.550;8.822;2023-01-25T10:16:02;2.10;99.90
8420;DHT22;4247;48.550;8.822;2023-01-25T10:18:36;2.30;99.90
8420;DHT22;4247;48.550;8.822;2023-01-25T10:21:09;2.20;99.90
8420;DHT22;4247;48.550;8.822;2023-01-25T10:26:39;2.10;99.90
8420;DHT22;4247;48.550;8.822;2023-01-25T10:29:12;2.20;99.90
8420;DHT22;4247;48.550;8.822;2023-01-25T10:31:45;2.10;99.90
8420;DHT22;4247;48.550;8.822;2023-01-25T10:34:19;2.10;99.90
8420;DHT22;4247;48.550;8.822;2023-01-25T10:36:52;2.10;99.90
8420;DHT22;4247;48.550;8.822;2023-01-25T10:39:20;2.10;99.90
8420;DHT22;4247;48.550;8.822;2023-01-25T10:41:54;2.10;99.90
8420;DHT22;4247;48.550;8.822;2023-01-25T10:44:26;2.10;99.90
8420;DHT22;4247;48.550;8.822;2023-01-25T10:47:17;2.20;99.90
8420;DHT22;4247;48.550;8.822;2023-01-25T10:49:51;2.20;99.90
8420;DHT22;4247;48.550;8.822;2023-01-25T10:52:19;2.20;99.90
8420;DHT22;4247;48.550;8.822;2023-01-25T10:55:01;2.20;99.90
8420;DHT22;4247;48.550;8.822;2023-01-25T10:57:34;2.20;99.90
8420;DHT22;4247;48.550;8.822;2023-01-25T11:00:05;2.20;99.90
8420;DHT22;4247;48.550;8.822;2023-01-25T11:02:42;2.30;99.90
8420;DHT22;4247;48.550;8.822;2023-01-25T11:08:36;2.40;99.90
8420;DHT22;4247;48.550;8.822;2023-01-25T11:11:24;2.40;99.90
8420;DHT22;4247;48.550;8.822;2023-01-25T11:13:52;2.40;99.90
8420;DHT22;4247;48.550;8.822;2023-01-25T11:16:28;2.40;99.90
8420;DHT22;4247;48.550;8.822;2023-01-25T11:19:00;2.40;99.90
8420;DHT22;4247;48.550;8.822;2023-01-25T11:21:32;2.30;99.90
8420;DHT22;4247;48.550;8.822;2023-01-25T11:24:16;2.40;99.90
8420;DHT22;4247;48.550;8.822;2023-01-25T11:26:44;2.40;99.90
8420;DHT22;4247;48.550;8.822;2023-01-25T11:29:17;2.30;99.90
8420;DHT22;4247;48.550;8.822;2023-01-25T11:31:46;2.30;99.90
8420;DHT22;4247;48.550;8.822;2023-01-25T11:34:18;2.30;99.90
8420;DHT22;4247;48.550;8.822;2023-01-25T11:37:22;2.30;99.90
8420;DHT22;4247;48.550;8.822;2023-01-25T11:40:01;2.40;99.90
8420;DHT22;4247;48.550;8.822;2023-01-25T11:42:40;2.40;99.90
8420;DHT22;4247;48.550;8.822;2023-01-25T11:45:42;2.40;99.90
8420;DHT22;4247;48.550;8.822;2023-01-25T11:48:40;2.40;99.90
8420;DHT22;4247;48.550;8.822;2023-01-25T11:51:15;2.40;99.90
8420;DHT22;4247;48.550;8.822;2023-01-25T11:54:09;2.40;99.90
8420;DHT22;4247;48.550;8.822;2023-01-25T11:56:53;2.50;99.90
8420;DHT22;4247;48.550;8.822;2023-01-25T11:59:41;2.40;99.90
8420;DHT22;4247;48.550;8.822;2023-01-25T12:05:42;2.40;99.90
8420;DHT22;4247;48.550;8.822;2023-01-25T12:08:36;2.40;99.90
8420;DHT22;4247;48.550;8.822;2023-01-25T12:11:14;2.40;99.90
8420;DHT22;4247;48.550;8.822;2023-01-25T12:13:53;2.30;99.90
8420;DHT22;4247;48.550;8.822;2023-01-25T12:16:37;2.40;99.90
8420;DHT22;4247;48.550;8.822;2023-01-25T12:19:25;2.30;99.90
8420;DHT22;4247;48.550;8.822;2023-01-25T12:22:32;2.30;99.90
8420;DHT22;4247;48.550;8.822;2023-01-25T12:25:07;2.40;99.90
8420;DHT22;4247;48.550;8.822;2023-01-25T12:27:45;2.30;99.90
8420;DHT22;4247;48.550;8.822;2023-01-25T12:30:22;2.30;99.90
8420;DHT22;4247;48.550;8.822;2023-01-25T12:32:56;2.30;99.90
8420;DHT22;4247;48.550;8.822;2023-01-25T12:35:29;2.20;99.90
8420;DHT22;4247;48.550;8.822;2023-01-25T12:38:01;2.30;99.90
8420;DHT22;4247;48.550;8.822;2023-01-25T12:40:40;2.30;99.90
8420;DHT22;4247;48.550;8.822;2023-01-25T12:43:15;2.30;99.90
8420;DHT22;4247;48.550;8.822;2023-01-25T12:45:49;2.30;99.90
8420;DHT22;4247;48.550;8.822;2023-01-25T12:48:22;2.30;99.90
8420;DHT22;4247;48.550;8.822;2023-01-25T12:50:54;2.30;99.90
8420;DHT22;4247;48.550;8.822;2023-01-25T12:53:27;2.30;99.90
8420;DHT22;4247;48.550;8.822;2023-01-25T12:55:56;2.40;99.90
8420;DHT22;4247;48.550;8.822;2023-01-25T12:58:30;2.40;99.90
8420;DHT22;4247;48.550;8.822;2023-01-25T13:01:10;2.40;99.90
8420;DHT22;4247;48.550;8.822;2023-01-25T13:03:55;2.40;99.90
8420;DHT22;4247;48.550;8.822;2023-01-25T13:06:35;2.30;99.90
8420;DHT22;4247;48.550;8.822;2023-01-25T13:09:17;2.30;99.90
8420;DHT22;4247;48.550;8.822;2023-01-25T13:11:49;2.40;99.90
8420;DHT22;4247;48.550;8.822;2023-01-25T13:14:27;2.40;99.90
8420;DHT22;4247;48.550;8.822;2023-01-25T13:17:21;2.50;99.90
8420;DHT22;4247;48.550;8.822;2023-01-25T13:19:49;2.30;99.90
8420;DHT22;4247;48.550;8.822;2023-01-25T13:25:20;2.30;99.90
8420;DHT22;4247;48.550;8.822;2023-01-25T13:27:48;2.30;99.90
8420;DHT22;4247;48.550;8.822;2023-01-25T13:30:31;2.30;99.90
8420;DHT22;4247;48.550;8.822;2023-01-25T13:33:32;2.30;99.90
8420;DHT22;4247;48.550;8.822;2023-01-25T13:39:40;2.30;99.90
8420;DHT22;4247;48.550;8.822;2023-01-25T13:42:19;2.40;99.90
8420;DHT22;4247;48.550;8.822;2023-01-25T13:44:48;2.30;99.90
8420;DHT22;4247;48.550;8.822;2023-01-25T13:47:18;2.30;99.90
8420;DHT22;4247;48.550;8.822;2023-01-25T13:49:51;2.20;99.90
8420;DHT22;4247;48.550;8.822;2023-01-25T13:52:21;2.20;99.90
8420;DHT22;4247;48.550;8.822;2023-01-25T13:54:54;2.30;99.90
8420;DHT22;4247;48.550;8.822;2023-01-25T13:57:23;2.30;99.90
8420;DHT22;4247;48.550;8.822;2023-01-25T13:59:58;2.30;99.90
8420;DHT22;4247;48.550;8.822;2023-01-25T14:02:26;2.40;99.90
8420;DHT22;4247;48.550;8.822;2023-01-25T14:04:57;2.40;99.90
8420;DHT22;4247;48.550;8.822;2023-01-25T14:07:31;2.30;99.90
8420;DHT22;4247;48.550;8.822;2023-01-25T14:10:01;2.30;99.90
8420;DHT22;4247;48.550;8.822;2023-01-25T14:12:35;2.30;99.90
8420;DHT22;4247;48.550;8.822;2023-01-25T14:15:21;2.30;99.90
8420;DHT22;4247;48.550;8.822;2023-01-25T14:18:12;2.30;99.90
8420;DHT22;4247;48.550;8.822;2023-01-25T14:20:45;2.20;99.90
8420;DHT22;4247;48.550;8.822;2023-01-25T14:23:25;2.30;99.90
8420;DHT22;4247;48.550;8.822;2023-01-25T14:25:54;2.30;99.90
8420;DHT22;4247;48.550;8.822;2023-01-25T14:28:25;2.30;99.90
8420;DHT22;4247;48.550;8.822;2023-01-25T14:30:53;2.30;99.90
8420;DHT22;4247;48.550;8.822;2023-01-25T14:33:23;2.30;99.90
8420;DHT22;4247;48.550;8.822;2023-01-25T14:35:53;2.30;99.90
8420;DHT22;4247;48.550;8.822;2023-01-25T14:38:27;2.30;99.90
8420;DHT22;4247;48.550;8.822;2023-01-25T14:40:57;2.30;99.90
8420;DHT22;4247;48.550;8.822;2023-01-25T14:43:25;2.30;99.90
8420;DHT22;4247;48.550;8.822;2023-01-25T14:45:52;2.30;99.90
8420;DHT22;4247;48.550;8.822;2023-01-25T14:48:36;2.30;99.90
8420;DHT22;4247;48.550;8.822;2023-01-25T14:51:14;2.20;99.90
8420;DHT22;4247;48.550;8.822;2023-01-25T14:53:45;2.20;99.90
8420;DHT22;4247;48.550;8.822;2023-01-25T14:56:24;2.20;99.90
8420;DHT22;4247;48.550;8.822;2023-01-25T14:58:53;2.20;99.90
8420;DHT22;4247;48.550;8.822;2023-01-25T15:01:28;2.20;99.90
8420;DHT22;4247;48.550;8.822;2023-01-25T15:03:55;2.20;99.90
8420;DHT22;4247;48.550;8.822;2023-01-25T15:06:26;2.20;99.90
8420;DHT22;4247;48.550;8.822;2023-01-25T15:08:53;2.20;99.90
8420;DHT22;4247;48.550;8.822;2023-01-25T15:11:28;2.20;99.90
8420;DHT22;4247;48.550;8.822;2023-01-25T15:14:14;2.20;99.90
8420;DHT22;4247;48.550;8.822;2023-01-25T15:16:42;2.20;99.90
8420;DHT22;4247;48.550;8.822;2023-01-25T15:19:24;2.20;99.90
8420;DHT22;4247;48.550;8.822;2023-01-25T15:21:53;2.10;99.90
8420;DHT22;4247;48.550;8.822;2023-01-25T15:24:21;2.10;99.90
8420;DHT22;4247;48.550;8.822;2023-01-25T15:26:52;2.20;99.90
8420;DHT22;4247;48.550;8.822;2023-01-25T15:29:21;2.20;99.90
8420;DHT22;4247;48.550;8.822;2023-01-25T15:31:53;2.20;99.90
8420;DHT22;4247;48.550;8.822;2023-01-25T15:34:23;2.20;99.90
8420;DHT22;4247;48.550;8.822;2023-01-25T15:36:53;2.10;99.90
8420;DHT22;4247;48.550;8.822;2023-01-25T15:39:20;2.20;99.90
8420;DHT22;4247;48.550;8.822;2023-01-25T15:41:50;2.30;99.90
8420;DHT22;4247;48.550;8.822;2023-01-25T15:44:17;2.20;99.90
8420;DHT22;4247;48.550;8.822;2023-01-25T15:46:49;2.20;99.90
8420;DHT22;4247;48.550;8.822;2023-01-25T15:49:24;2.20;99.90
8420;DHT22;4247;48.550;8.822;2023-01-25T15:51:54;2.20;99.90
8420;DHT22;4247;48.550;8.822;2023-01-25T15:54:22;2.20;99.90
8420;DHT22;4247;48.550;8.822;2023-01-25T15:56:53;2.20;99.90
8420;DHT22;4247;48.550;8.822;2023-01-25T15:59:20;2.20;99.90
8420;DHT22;4247;48.550;8.822;2023-01-25T16:01:48;2.20;99.90
8420;DHT22;4247;48.550;8.822;2023-01-25T16:04:15;2.20;99.90
8420;DHT22;4247;48.550;8.822;2023-01-25T16:06:43;2.20;99.90
8420;DHT22;4247;48.550;8.822;2023-01-25T16:09:18;2.20;99.90
8420;DHT22;4247;48.550;8.822;2023-01-25T16:11:51;2.20;99.90
8420;DHT22;4247;48.550;8.822;2023-01-25T16:14:19;2.20;99.90
8420;DHT22;4247;48.550;8.822;2023-01-25T16:16:49;2.20;99.90
8420;DHT22;4247;48.550;8.822;2023-01-25T16:19:19;2.10;99.90
8420;DHT22;4247;48.550;8.822;2023-01-25T16:21:46;2.10;99.90
8420;DHT22;4247;48.550;8.822;2023-01-25T16:24:18;2.00;99.90
8420;DHT22;4247;48.550;8.822;2023-01-25T16:26:50;2.10;99.90
8420;DHT22;4247;48.550;8.822;2023-01-25T16:29:17;2.00;99.90
8420;DHT22;4247;48.550;8.822;2023-01-25T16:31:45;2.00;99.90
8420;DHT22;4247;48.550;8.822;2023-01-25T16:34:12;2.00;99.90
8420;DHT22;4247;48.550;8.822;2023-01-25T16:36:39;2.00;99.90
8420;DHT22;4247;48.550;8.822;2023-01-25T16:39:08;1.90;99.90
8420;DHT22;4247;48.550;8.822;2023-01-25T16:41:36;2.00;99.90
8420;DHT22;4247;48.550;8.822;2023-01-25T16:44:03;2.00;99.90
8420;DHT22;4247;48.550;8.822;2023-01-25T16:46:34;2.00;99.90
8420;DHT22;4247;48.550;8.822;2023-01-25T16:49:01;2.00;99.90
8420;DHT22;4247;48.550;8.822;2023-01-25T16:51:31;2.00;99.90
8420;DHT22;4247;48.550;8.822;2023-01-25T16:53:58;2.00;99.90
8420;DHT22;4247;48.550;8.822;2023-01-25T16:56:26;2.00;99.90
8420;DHT22;4247;48.550;8.822;2023-01-25T16:58:58;2.00;99.90
8420;DHT22;4247;48.550;8.822;2023-01-25T17:01:28;1.90;99.90